Time;durP1;ratioP1;P1;durP2;ratioP2;P2;SDS_P1;SDS_P2;PMS_P1;PMS_P2;Temp;Humidity;BMP_temperature;BMP_pressure;BME280_temperature;BME280_humidity;BME280_pressure;Samples;Min_cycle;Max_cycle;Signal;HPM_P1;HPM_P2
2020/12/28 00:00:12;;;;;;;37.65;6.20;;;;;;;;;;4102771;34;20128;-87
2020/12/28 00:02:42;;;;;;;32.90;4.47;;;;;;;;;;4105989;34;20108;-88
2020/12/28 00:05:11;;;;;;;28.95;4.32;;;;;;;;;;4112398;34;20103;-91
2020/12/28 00:07:39;;;;;;;29.23;4.90;;;;;;;;;;4111881;34;20119;-87
2020/12/28 00:10:13;;;;;;;26.15;4.55;;;;;;;;;;4096793;34;20097;-89
2020/12/28 00:12:47;;;;;;;29.73;4.07;;;;;;;;;;4109292;34;20088;-86
2020/12/28 00:15:17;;;;;;;34.78;5.07;;;;;;;;;;4110209;34;20694;-85
2020/12/28 00:17:46;;;;;;;27.25;4.25;;;;;;;;;;4097492;34;20084;-88
2020/12/28 00:20:14;;;;;;;20.95;4.22;;;;;;;;;;4092264;34;20591;-84
2020/12/28 00:22:43;;;;;;;16.23;4.00;;;;;;;;;;4105454;34;20160;-87
2020/12/28 00:25:11;;;;;;;22.85;3.40;;;;;;;;;;4115020;34;20792;-87
2020/12/28 00:27:40;;;;;;;20.15;4.45;;;;;;;;;;4109596;34;20069;-87
2020/12/28 00:30:09;;;;;;;35.97;4.70;;;;;;;;;;4105128;34;20132;-89
2020/12/28 00:32:37;;;;;;;14.43;3.60;;;;;;;;;;4103709;34;20593;-86
2020/12/28 00:35:06;;;;;;;26.40;3.60;;;;;;;;;;4104504;34;20886;-86
2020/12/28 00:37:35;;;;;;;22.25;4.62;;;;;;;;;;4110195;34;20080;-86
2020/12/28 00:40:05;;;;;;;20.40;4.07;;;;;;;;;;4112812;34;20069;-88
2020/12/28 00:42:33;;;;;;;25.17;3.90;;;;;;;;;;4101751;34;20119;-88
2020/12/28 00:45:01;;;;;;;20.73;4.65;;;;;;;;;;4108738;34;20085;-89
2020/12/28 00:47:30;;;;;;;25.02;4.57;;;;;;;;;;4107678;34;20116;-89
2020/12/28 00:49:59;;;;;;;25.35;5.12;;;;;;;;;;4097021;34;20457;-86
2020/12/28 00:52:28;;;;;;;26.95;4.30;;;;;;;;;;4107426;34;20065;-87
2020/12/28 00:54:56;;;;;;;17.12;4.10;;;;;;;;;;4107042;34;20140;-85
2020/12/28 00:57:24;;;;;;;19.60;4.62;;;;;;;;;;4116149;34;20058;-84
2020/12/28 00:59:53;;;;;;;16.77;3.45;;;;;;;;;;4112683;34;20037;-87
2020/12/28 01:02:22;;;;;;;28.00;5.22;;;;;;;;;;4115610;34;20164;-90
2020/12/28 01:04:52;;;;;;;20.98;4.30;;;;;;;;;;4113519;34;20556;-89
2020/12/28 01:07:21;;;;;;;17.62;4.00;;;;;;;;;;4110262;34;20078;-87
2020/12/28 01:09:49;;;;;;;17.62;4.87;;;;;;;;;;4109280;34;20080;-84
2020/12/28 01:12:18;;;;;;;19.70;4.45;;;;;;;;;;4103072;34;20147;-90
2020/12/28 01:14:47;;;;;;;23.52;4.37;;;;;;;;;;4114871;34;20073;-91
2020/12/28 01:17:17;;;;;;;17.30;4.40;;;;;;;;;;4106818;34;20801;-86
2020/12/28 01:19:46;;;;;;;32.35;4.05;;;;;;;;;;4098826;34;20748;-92
2020/12/28 01:22:15;;;;;;;21.30;3.90;;;;;;;;;;4113335;34;20067;-87
2020/12/28 01:24:45;;;;;;;42.45;5.20;;;;;;;;;;4103743;34;20112;-87
2020/12/28 01:27:13;;;;;;;24.80;4.12;;;;;;;;;;4103625;34;20147;-88
2020/12/28 01:29:42;;;;;;;22.83;4.22;;;;;;;;;;4088797;34;20104;-89
2020/12/28 01:32:10;;;;;;;36.67;5.45;;;;;;;;;;4092440;34;20080;-91
2020/12/28 01:34:40;;;;;;;16.80;3.35;;;;;;;;;;4101126;34;20046;-92
2020/12/28 01:37:08;;;;;;;20.00;4.28;;;;;;;;;;4103331;34;20073;-90
2020/12/28 01:39:39;;;;;;;22.42;4.37;;;;;;;;;;4094863;34;20202;-86
2020/12/28 01:42:08;;;;;;;34.70;4.07;;;;;;;;;;4096947;34;20116;-86
2020/12/28 01:44:37;;;;;;;23.25;4.03;;;;;;;;;;4100990;34;20125;-86
2020/12/28 01:47:06;;;;;;;19.02;4.05;;;;;;;;;;4099944;34;20509;-89
2020/12/28 01:49:34;;;;;;;25.55;5.07;;;;;;;;;;4106277;34;20152;-90
2020/12/28 01:52:03;;;;;;;14.50;4.03;;;;;;;;;;4099250;34;20708;-89
2020/12/28 01:54:32;;;;;;;27.62;5.37;;;;;;;;;;4103249;34;20789;-91
2020/12/28 01:57:01;;;;;;;32.63;3.78;;;;;;;;;;4102194;34;20038;-85
2020/12/28 01:59:30;;;;;;;19.23;3.47;;;;;;;;;;4096537;34;20147;-87
2020/12/28 02:02:00;;;;;;;25.23;4.70;;;;;;;;;;4105929;34;20155;-88
2020/12/28 02:04:29;;;;;;;21.80;3.50;;;;;;;;;;4100518;34;20108;-89
2020/12/28 02:06:58;;;;;;;20.92;3.62;;;;;;;;;;4112999;34;20084;-91
2020/12/28 02:09:26;;;;;;;17.83;3.65;;;;;;;;;;4110247;34;20191;-91
2020/12/28 02:11:55;;;;;;;24.30;4.65;;;;;;;;;;4096900;34;20161;-85
2020/12/28 02:14:24;;;;;;;14.82;3.75;;;;;;;;;;4079571;34;20145;-87
2020/12/28 02:16:52;;;;;;;14.87;3.90;;;;;;;;;;4090195;34;20069;-86
2020/12/28 02:19:22;;;;;;;17.70;3.33;;;;;;;;;;4086163;34;20061;-89
2020/12/28 02:21:51;;;;;;;26.77;4.68;;;;;;;;;;4106217;34;20435;-87
2020/12/28 02:24:22;;;;;;;26.42;4.50;;;;;;;;;;4099821;34;20108;-89
2020/12/28 02:26:51;;;;;;;14.27;4.18;;;;;;;;;;4084244;34;20093;-87
2020/12/28 02:29:19;;;;;;;28.62;4.57;;;;;;;;;;4088505;34;20073;-91
2020/12/28 02:31:48;;;;;;;22.27;3.80;;;;;;;;;;4093659;34;20479;-89
2020/12/28 02:34:18;;;;;;;24.73;6.03;;;;;;;;;;4101142;34;20070;-85
2020/12/28 02:36:46;;;;;;;27.98;3.62;;;;;;;;;;4103760;34;20118;-89
2020/12/28 02:39:15;;;;;;;31.80;4.82;;;;;;;;;;4094602;34;20058;-91
2020/12/28 02:41:44;;;;;;;15.52;4.03;;;;;;;;;;4103853;34;20191;-87
2020/12/28 02:44:27;;;;;;;22.13;3.75;;;;;;;;;;4079355;34;20073;-90
2020/12/28 02:47:13;;;;;;;24.12;4.25;;;;;;;;;;4080426;34;20544;-87
2020/12/28 02:49:56;;;;;;;15.27;3.60;;;;;;;;;;4094790;34;20169;-84
2020/12/28 02:52:45;;;;;;;19.85;4.45;;;;;;;;;;4079771;34;20101;-91
2020/12/28 02:55:37;;;;;;;16.87;3.92;;;;;;;;;;4064635;34;20861;-84
2020/12/28 02:58:23;;;;;;;17.77;4.00;;;;;;;;;;4077760;34;20093;-90
2020/12/28 03:01:08;;;;;;;17.55;2.75;;;;;;;;;;4071988;34;20119;-88
2020/12/28 03:03:54;;;;;;;24.85;5.18;;;;;;;;;;4085348;34;20120;-89
2020/12/28 03:06:40;;;;;;;17.12;3.62;;;;;;;;;;4075591;34;20464;-86
2020/12/28 03:09:26;;;;;;;21.75;3.75;;;;;;;;;;4079275;35;20632;-87
2020/12/28 03:12:21;;;;;;;19.25;4.95;;;;;;;;;;4713301;29;20080;31
2020/12/28 03:15:07;;;;;;;14.48;4.20;;;;;;;;;;4078902;34;20137;-85
2020/12/28 03:17:50;;;;;;;24.35;4.28;;;;;;;;;;4096570;34;20916;-87
2020/12/28 03:20:35;;;;;;;31.67;5.40;;;;;;;;;;4106139;34;20174;-88
2020/12/28 03:23:21;;;;;;;29.12;4.90;;;;;;;;;;4082181;29;20049;-87
2020/12/28 03:26:05;;;;;;;36.78;4.93;;;;;;;;;;4101158;34;20204;-87
2020/12/28 03:29:00;;;;;;;28.85;5.15;;;;;;;;;;4079369;34;20495;-87
2020/12/28 03:31:46;;;;;;;24.77;4.05;;;;;;;;;;4120466;34;20062;-88
2020/12/28 03:34:38;;;;;;;34.10;4.00;;;;;;;;;;4104500;34;21054;-86
2020/12/28 03:37:21;;;;;;;27.48;4.57;;;;;;;;;;4110408;34;20041;-87
2020/12/28 03:40:04;;;;;;;23.00;5.10;;;;;;;;;;4115818;34;20512;-87
2020/12/28 03:42:56;;;;;;;21.33;3.97;;;;;;;;;;4080664;34;20141;-88
2020/12/28 03:45:39;;;;;;;32.03;4.45;;;;;;;;;;4082705;34;20536;-86
2020/12/28 03:48:23;;;;;;;26.67;5.93;;;;;;;;;;4082467;34;20101;-87
2020/12/28 03:51:06;;;;;;;30.35;4.65;;;;;;;;;;4099731;34;20105;-88
2020/12/28 03:53:51;;;;;;;30.55;4.65;;;;;;;;;;4093834;34;20152;-87
2020/12/28 03:56:34;;;;;;;34.13;5.50;;;;;;;;;;4091716;34;20128;-87
2020/12/28 03:59:20;;;;;;;36.47;4.95;;;;;;;;;;4101780;34;20137;-88
2020/12/28 04:02:12;;;;;;;30.35;5.10;;;;;;;;;;4119387;34;20061;-86
2020/12/28 04:04:59;;;;;;;29.52;5.28;;;;;;;;;;4117110;34;20080;-86
2020/12/28 04:07:33;;;;;;;31.70;5.70;;;;;;;;;;4113759;34;20061;-87
2020/12/28 04:10:18;;;;;;;39.20;6.20;;;;;;;;;;4104641;34;20060;-86
2020/12/28 04:12:47;;;;;;;27.37;4.70;;;;;;;;;;4118387;34;20552;-88
2020/12/28 04:15:15;;;;;;;29.33;5.15;;;;;;;;;;4115233;34;20534;-90
2020/12/28 04:17:43;;;;;;;40.50;6.60;;;;;;;;;;4094129;34;20190;-86
2020/12/28 04:20:11;;;;;;;28.20;4.95;;;;;;;;;;4103855;34;20447;-86
2020/12/28 04:22:40;;;;;;;29.33;5.47;;;;;;;;;;4109345;34;20060;-88
2020/12/28 04:25:08;;;;;;;34.40;6.25;;;;;;;;;;4082925;34;20485;-88
2020/12/28 04:27:36;;;;;;;41.67;6.20;;;;;;;;;;4086157;34;20102;-86
2020/12/28 04:30:05;;;;;;;25.77;5.45;;;;;;;;;;4084285;34;20491;-86
2020/12/28 04:32:33;;;;;;;36.28;5.65;;;;;;;;;;4091736;34;20058;-88
2020/12/28 04:35:01;;;;;;;30.73;5.50;;;;;;;;;;4092978;34;20152;-86
2020/12/28 04:37:31;;;;;;;28.20;4.40;;;;;;;;;;4084952;34;20095;-88
2020/12/28 04:40:02;;;;;;;43.15;5.97;;;;;;;;;;4078008;34;20070;-88
2020/12/28 04:42:31;;;;;;;28.08;4.25;;;;;;;;;;4077767;34;20554;-88
2020/12/28 04:44:59;;;;;;;28.65;4.18;;;;;;;;;;4095080;34;20132;-87
2020/12/28 04:47:27;;;;;;;27.60;4.53;;;;;;;;;;4091624;34;20093;-86
2020/12/28 04:49:55;;;;;;;32.55;5.03;;;;;;;;;;4093242;34;20163;-87
2020/12/28 04:52:24;;;;;;;20.17;4.15;;;;;;;;;;4077420;34;20088;-88
2020/12/28 04:54:54;;;;;;;34.70;4.60;;;;;;;;;;4093019;34;22111;-90
2020/12/28 04:57:23;;;;;;;43.87;5.85;;;;;;;;;;4078676;34;21387;-87
2020/12/28 04:59:55;;;;;;;24.87;4.18;;;;;;;;;;4081137;34;20085;-86
2020/12/28 05:02:24;;;;;;;29.70;4.78;;;;;;;;;;4077136;34;20183;-87
2020/12/28 05:05:04;;;;;;;31.33;5.20;;;;;;;;;;4091117;34;20084;-88
2020/12/28 05:07:33;;;;;;;24.63;5.12;;;;;;;;;;4092398;34;20082;-87
2020/12/28 05:10:01;;;;;;;20.45;4.82;;;;;;;;;;4095171;34;20834;-87
2020/12/28 05:12:30;;;;;;;28.12;5.15;;;;;;;;;;4091441;34;20116;-88
2020/12/28 05:15:06;;;;;;;20.12;4.45;;;;;;;;;;4078025;34;20066;-88
2020/12/28 05:17:34;;;;;;;26.92;4.95;;;;;;;;;;4096122;34;20515;-87
2020/12/28 05:20:03;;;;;;;26.98;4.95;;;;;;;;;;4079274;34;20066;-87
2020/12/28 05:22:32;;;;;;;26.33;4.55;;;;;;;;;;4078506;34;20164;-89
2020/12/28 05:25:01;;;;;;;33.97;4.93;;;;;;;;;;4100445;34;20490;-87
2020/12/28 05:27:30;;;;;;;22.05;4.37;;;;;;;;;;4106044;34;20540;-87
2020/12/28 05:29:58;;;;;;;20.52;4.15;;;;;;;;;;4103142;34;20132;-88
2020/12/28 05:32:26;;;;;;;30.23;4.72;;;;;;;;;;4104118;34;20953;-87
2020/12/28 05:34:56;;;;;;;25.50;4.47;;;;;;;;;;4093677;34;20069;-89
2020/12/28 05:37:24;;;;;;;16.75;3.47;;;;;;;;;;4109246;34;20157;-89
2020/12/28 05:39:52;;;;;;;24.90;4.12;;;;;;;;;;4109645;34;20061;-88
2020/12/28 05:42:22;;;;;;;18.62;4.10;;;;;;;;;;4085659;34;20484;-88
2020/12/28 05:44:50;;;;;;;33.03;4.45;;;;;;;;;;4091210;34;20140;-88
2020/12/28 05:47:18;;;;;;;29.42;4.47;;;;;;;;;;4104875;34;20425;-87
2020/12/28 05:49:48;;;;;;;29.80;3.90;;;;;;;;;;4106558;34;20485;-88
2020/12/28 05:52:17;;;;;;;17.27;4.22;;;;;;;;;;4107688;34;20136;-87
2020/12/28 05:54:45;;;;;;;25.27;5.15;;;;;;;;;;4107937;34;21080;-88
2020/12/28 05:57:14;;;;;;;21.58;3.45;;;;;;;;;;4108945;34;20120;-88
2020/12/28 05:59:42;;;;;;;22.58;3.75;;;;;;;;;;4108089;34;20111;-86
2020/12/28 06:02:12;;;;;;;21.00;3.65;;;;;;;;;;4092214;34;20162;-87
2020/12/28 06:04:43;;;;;;;17.37;3.55;;;;;;;;;;4106857;34;20116;-85
2020/12/28 06:07:11;;;;;;;17.10;4.50;;;;;;;;;;4104322;34;21246;-87
2020/12/28 06:09:39;;;;;;;17.65;3.65;;;;;;;;;;4104373;34;21685;-86
2020/12/28 06:12:08;;;;;;;18.17;3.20;;;;;;;;;;4102253;34;20179;-87
2020/12/28 06:14:40;;;;;;;13.70;3.47;;;;;;;;;;4105439;34;20548;-88
2020/12/28 06:17:12;;;;;;;14.25;3.47;;;;;;;;;;4091870;34;20402;-89
2020/12/28 06:19:42;;;;;;;28.55;4.28;;;;;;;;;;4108551;34;20089;-89
2020/12/28 06:22:23;;;;;;;26.20;4.15;;;;;;;;;;4104419;34;20108;-89
2020/12/28 06:24:56;;;;;;;29.75;4.90;;;;;;;;;;4108977;34;20373;-87
2020/12/28 06:27:32;;;;;;;15.25;3.40;;;;;;;;;;4093257;34;20084;-89
2020/12/28 06:30:07;;;;;;;18.35;3.53;;;;;;;;;;4106649;34;20141;-87
2020/12/28 06:32:36;;;;;;;23.98;4.05;;;;;;;;;;4093426;34;20486;-88
2020/12/28 06:35:05;;;;;;;23.87;4.30;;;;;;;;;;4114630;34;20505;-87
2020/12/28 06:37:44;;;;;;;19.67;3.75;;;;;;;;;;4113230;34;20129;-87
2020/12/28 06:40:13;;;;;;;20.60;3.92;;;;;;;;;;4107117;34;20525;-87
2020/12/28 06:42:41;;;;;;;19.65;3.92;;;;;;;;;;4107818;34;20121;-89
2020/12/28 06:45:13;;;;;;;30.50;4.30;;;;;;;;;;4097364;34;20096;-90
2020/12/28 06:47:42;;;;;;;17.23;3.58;;;;;;;;;;4114279;34;20058;-87
2020/12/28 06:50:11;;;;;;;26.98;5.35;;;;;;;;;;4109447;34;20154;-87
2020/12/28 06:52:41;;;;;;;23.83;4.80;;;;;;;;;;4106659;34;20115;-88
2020/12/28 06:55:12;;;;;;;21.08;4.30;;;;;;;;;;4104189;34;20152;-88
2020/12/28 06:57:41;;;;;;;16.15;4.47;;;;;;;;;;4116476;34;20203;-86
2020/12/28 07:00:18;;;;;;;32.15;4.45;;;;;;;;;;4107680;34;20061;-86
2020/12/28 07:02:55;;;;;;;29.45;4.60;;;;;;;;;;4096318;34;20448;-88
2020/12/28 07:05:23;;;;;;;29.73;4.47;;;;;;;;;;4113205;34;20719;-86
2020/12/28 07:07:54;;;;;;;41.15;5.40;;;;;;;;;;4108833;34;20085;-87
2020/12/28 07:10:23;;;;;;;22.65;3.67;;;;;;;;;;4103871;34;20066;-86
2020/12/28 07:12:52;;;;;;;19.85;3.78;;;;;;;;;;4108279;34;20124;-87
2020/12/28 07:15:20;;;;;;;28.02;4.47;;;;;;;;;;4102197;34;20089;-90
2020/12/28 07:17:48;;;;;;;15.20;3.53;;;;;;;;;;4105159;34;20120;-89
2020/12/28 07:20:17;;;;;;;16.35;4.12;;;;;;;;;;4111583;34;20810;-88
2020/12/28 07:22:45;;;;;;;25.83;3.58;;;;;;;;;;4088845;34;20466;-87
2020/12/28 07:25:13;;;;;;;9.35;3.30;;;;;;;;;;4117438;34;20176;-87
2020/12/28 07:27:43;;;;;;;29.10;3.62;;;;;;;;;;4112194;34;20107;-88
2020/12/28 07:30:12;;;;;;;12.63;2.80;;;;;;;;;;4119013;34;20539;-87
2020/12/28 07:32:41;;;;;;;23.02;3.90;;;;;;;;;;4115520;34;20178;-87
2020/12/28 07:35:09;;;;;;;32.55;4.35;;;;;;;;;;4115148;34;20488;-88
2020/12/28 07:37:42;;;;;;;17.30;3.75;;;;;;;;;;4123749;34;20167;-86
2020/12/28 07:40:12;;;;;;;11.18;3.33;;;;;;;;;;4119803;34;21732;-86
2020/12/28 07:42:41;;;;;;;20.42;4.20;;;;;;;;;;4121417;34;20076;-88
2020/12/28 07:45:10;;;;;;;13.13;2.92;;;;;;;;;;4120256;34;20164;-87
2020/12/28 07:47:46;;;;;;;16.05;3.50;;;;;;;;;;4121497;34;20054;-88
2020/12/28 07:50:15;;;;;;;23.33;3.70;;;;;;;;;;4119559;34;20065;-86
2020/12/28 07:52:52;;;;;;;18.87;4.30;;;;;;;;;;4114525;34;20116;-87
2020/12/28 07:55:21;;;;;;;18.87;3.92;;;;;;;;;;4119741;34;20073;-86
2020/12/28 07:58:01;;;;;;;13.27;2.95;;;;;;;;;;4120950;34;20155;-88
2020/12/28 08:00:34;;;;;;;18.05;4.15;;;;;;;;;;4120906;34;20053;-88
2020/12/28 08:03:06;;;;;;;26.67;5.10;;;;;;;;;;4116677;34;20134;-85
2020/12/28 08:05:35;;;;;;;14.93;3.28;;;;;;;;;;4122282;34;20081;-87
2020/12/28 08:08:04;;;;;;;19.15;3.40;;;;;;;;;;4121686;34;20078;-86
2020/12/28 08:10:32;;;;;;;22.77;3.53;;;;;;;;;;4110816;34;20119;-87
2020/12/28 08:13:00;;;;;;;18.75;3.92;;;;;;;;;;4120278;34;20120;-87
2020/12/28 08:15:32;;;;;;;32.00;4.40;;;;;;;;;;4120565;34;20065;-87
2020/12/28 08:18:07;;;;;;;21.30;4.20;;;;;;;;;;4121506;34;20103;-88
2020/12/28 08:20:36;;;;;;;20.88;3.92;;;;;;;;;;4123222;34;20162;-87
2020/12/28 08:23:05;;;;;;;22.85;3.37;;;;;;;;;;4117318;34;20104;-88
2020/12/28 08:25:34;;;;;;;23.98;3.70;;;;;;;;;;4116559;34;20129;-87
2020/12/28 08:28:03;;;;;;;21.75;3.62;;;;;;;;;;4112827;34;20075;-88
2020/12/28 08:30:32;;;;;;;34.05;3.70;;;;;;;;;;4108414;34;20080;-90
2020/12/28 08:33:01;;;;;;;30.62;4.20;;;;;;;;;;4117264;34;20092;-87
2020/12/28 08:35:30;;;;;;;49.90;6.03;;;;;;;;;;4103508;34;20117;-86
2020/12/28 08:37:59;;;;;;;32.38;4.35;;;;;;;;;;4113591;34;20150;-87
2020/12/28 08:40:27;;;;;;;31.52;5.28;;;;;;;;;;4114196;34;20390;-87
2020/12/28 08:42:57;;;;;;;34.08;5.10;;;;;;;;;;4114946;34;20140;-89
2020/12/28 08:45:26;;;;;;;37.63;5.50;;;;;;;;;;4116125;34;20117;-87
2020/12/28 08:47:56;;;;;;;29.15;5.25;;;;;;;;;;4114291;34;20124;-88
2020/12/28 08:50:25;;;;;;;46.80;6.20;;;;;;;;;;4113343;34;20105;-87
2020/12/28 08:52:55;;;;;;;23.55;4.43;;;;;;;;;;4114782;34;20128;-87
2020/12/28 08:55:24;;;;;;;43.35;6.30;;;;;;;;;;4111788;34;20517;-88
2020/12/28 08:57:53;;;;;;;20.90;5.28;;;;;;;;;;4116541;34;20112;-89
2020/12/28 09:00:25;;;;;;;34.20;5.87;;;;;;;;;;4104548;34;20477;-89
2020/12/28 09:02:56;;;;;;;24.98;5.18;;;;;;;;;;4115650;34;20053;-88
2020/12/28 09:05:25;;;;;;;22.70;4.72;;;;;;;;;;4109397;34;20079;-89
2020/12/28 09:07:54;;;;;;;25.70;5.50;;;;;;;;;;4099464;34;20060;-89
2020/12/28 09:10:23;;;;;;;41.97;6.45;;;;;;;;;;4111001;34;20560;-90
2020/12/28 09:12:51;;;;;;;30.67;5.62;;;;;;;;;;4113412;34;20758;-88
2020/12/28 09:15:19;;;;;;;33.10;5.70;;;;;;;;;;4110862;34;20156;-89
2020/12/28 09:17:47;;;;;;;32.05;8.02;;;;;;;;;;4114895;34;20433;-88
2020/12/28 09:20:15;;;;;;;25.83;5.65;;;;;;;;;;4112510;34;20122;-88
2020/12/28 09:22:44;;;;;;;36.17;5.62;;;;;;;;;;4112781;34;20208;-90
2020/12/28 09:25:12;;;;;;;30.08;5.78;;;;;;;;;;4115461;34;20084;-88
2020/12/28 09:27:40;;;;;;;22.45;5.53;;;;;;;;;;4121673;34;20710;-87
2020/12/28 09:30:09;;;;;;;44.45;6.87;;;;;;;;;;4132415;34;20121;-87
2020/12/28 09:32:39;;;;;;;28.67;5.93;;;;;;;;;;4127775;34;20490;-89
2020/12/28 09:35:08;;;;;;;29.45;6.75;;;;;;;;;;4126170;34;20066;-89
2020/12/28 09:37:36;;;;;;;38.00;5.53;;;;;;;;;;4140681;34;20064;-88
2020/12/28 09:40:05;;;;;;;31.92;7.12;;;;;;;;;;4102050;34;20061;-89
2020/12/28 09:42:33;;;;;;;40.92;6.93;;;;;;;;;;4136509;34;20065;-89
2020/12/28 09:45:04;;;;;;;33.10;7.20;;;;;;;;;;4120227;34;20448;-89
2020/12/28 09:47:35;;;;;;;35.95;6.32;;;;;;;;;;4117087;34;20076;-90
2020/12/28 09:50:03;;;;;;;29.60;6.90;;;;;;;;;;4127910;34;20128;-89
2020/12/28 09:52:31;;;;;;;29.75;7.22;;;;;;;;;;4112500;34;20128;-90
2020/12/28 09:55:00;;;;;;;35.42;7.28;;;;;;;;;;4127058;34;20065;-91
2020/12/28 09:57:29;;;;;;;36.05;6.57;;;;;;;;;;4119961;34;20085;-90
2020/12/28 10:00:00;;;;;;;26.85;5.68;;;;;;;;;;4121975;34;20151;-88
2020/12/28 10:02:28;;;;;;;28.12;7.62;;;;;;;;;;4124336;34;20062;-88
2020/12/28 10:04:57;;;;;;;45.08;7.82;;;;;;;;;;4130250;34;20083;-88
2020/12/28 10:07:25;;;;;;;42.75;8.23;;;;;;;;;;4136191;34;20350;-89
2020/12/28 10:09:54;;;;;;;32.85;6.25;;;;;;;;;;4122689;34;20916;-89
2020/12/28 10:12:22;;;;;;;36.67;7.68;;;;;;;;;;4118429;34;20128;-91
2020/12/28 10:14:50;;;;;;;43.38;7.30;;;;;;;;;;4125684;34;20449;-89
2020/12/28 10:17:19;;;;;;;47.08;7.68;;;;;;;;;;4110574;34;20081;-90
2020/12/28 10:19:47;;;;;;;48.17;7.78;;;;;;;;;;4128070;34;20111;-88
2020/12/28 10:22:15;;;;;;;33.15;6.62;;;;;;;;;;4127172;34;20096;-89
2020/12/28 10:24:43;;;;;;;39.72;7.32;;;;;;;;;;4111025;34;20874;-90
2020/12/28 10:27:12;;;;;;;29.95;6.97;;;;;;;;;;4127194;34;20120;-91
2020/12/28 10:29:41;;;;;;;34.45;7.62;;;;;;;;;;4112180;34;20170;-89
2020/12/28 10:32:09;;;;;;;32.70;6.80;;;;;;;;;;4127658;34;20068;-89
2020/12/28 10:34:57;;;;;;;39.28;6.87;;;;;;;;;;4126138;34;20097;-89
2020/12/28 10:37:25;;;;;;;28.02;6.40;;;;;;;;;;4127256;34;20131;-90
2020/12/28 10:39:53;;;;;;;37.08;7.12;;;28.80;25.60;;;;;;4118254;34;20084;-88
2020/12/28 10:42:22;;;;;;;46.45;7.28;;;28.10;24.80;;;;;;4126911;34;20061;-90
2020/12/28 10:44:50;;;;;;;29.77;6.50;;;28.70;23.50;;;;;;4124038;34;20080;-91
2020/12/28 10:47:18;;;;;;;33.00;6.20;;;31.00;29.20;;;;;;4121462;34;20128;-89
2020/12/28 10:49:46;;;;;;;26.77;5.95;;;30.50;33.50;;;;;;4119850;34;20065;-88
2020/12/28 10:52:15;;;;;;;32.80;5.47;;;30.10;32.60;;;;;;4122117;34;20521;-88
2020/12/28 10:54:43;;;;;;;23.65;6.43;;;30.10;37.00;;;;;;4125054;34;20476;-90
2020/12/28 10:57:11;;;;;;;26.15;6.37;;;30.70;36.60;;;;;;4128104;34;20079;-89
2020/12/28 10:59:40;;;;;;;30.55;6.25;;;29.70;32.60;;;;;;4114893;34;20136;-89
2020/12/28 11:02:08;;;;;;;24.17;6.15;;;29.90;38.80;;;;;;4128374;34;20056;-90
2020/12/28 11:04:38;;;;;;;36.65;6.25;;;30.00;37.70;;;;;;4124023;34;20061;-89
2020/12/28 11:07:06;;;;;;;25.67;5.75;;;30.10;38.50;;;;;;4128869;34;20373;-91
2020/12/28 11:09:34;;;;;;;28.77;5.55;;;;;;;;;;4126442;34;20123;-89
2020/12/28 11:12:02;;;;;;;26.65;5.70;;;31.80;76.70;;;;;;4125781;34;20065;-88
2020/12/28 11:14:30;;;;;;;22.15;5.43;;;32.20;35.20;;;;;;4120069;34;20082;-89
2020/12/28 11:17:03;;;;;;;29.08;5.90;;;32.00;33.80;;;;;;4106084;34;20351;-89
2020/12/28 11:19:34;;;;;;;23.62;5.55;;;32.20;32.30;;;;;;4120421;34;20135;-89
2020/12/28 11:22:01;;;;;;;31.65;6.57;;;32.10;31.30;;;;;;4119567;34;20178;-88
2020/12/28 11:24:29;;;;;;;33.95;5.82;;;32.00;28.80;;;;;;4113692;34;20121;-90
2020/12/28 11:26:57;;;;;;;27.83;5.72;;;32.10;29.20;;;;;;4097002;34;20113;-90
2020/12/28 11:29:25;;;;;;;34.53;5.80;;;31.50;28.20;;;;;;4109399;34;20374;-90
2020/12/28 11:31:54;;;;;;;44.83;6.18;;;32.00;27.20;;;;;;4109662;34;20379;-89
2020/12/28 11:34:23;;;;;;;28.10;5.82;;;32.50;28.70;;;;;;4111219;34;20144;-89
2020/12/28 11:36:51;;;;;;;35.85;6.32;;;33.40;27.00;;;;;;4113966;34;20072;-89
2020/12/28 11:39:18;;;;;;;34.33;6.25;;;32.40;26.30;;;;;;4102890;34;20065;-90
2020/12/28 11:41:48;;;;;;;33.97;5.72;;;32.30;26.20;;;;;;4101194;34;20101;-88
2020/12/28 11:44:16;;;;;;;30.95;5.95;;;32.00;27.50;;;;;;4115964;34;20160;-88
2020/12/28 11:46:43;;;;;;;30.45;5.85;;;32.00;24.70;;;;;;4103197;34;20054;-89
2020/12/28 11:49:12;;;;;;;33.08;5.22;;;32.40;27.30;;;;;;4113445;34;20124;-88
2020/12/28 11:51:40;;;;;;;27.75;5.03;;;32.70;27.30;;;;;;4112184;34;20088;-89
2020/12/28 11:54:08;;;;;;;29.08;5.37;;;32.20;29.50;;;;;;4102856;34;20162;-89
2020/12/28 11:56:36;;;;;;;23.52;4.57;;;30.30;34.40;;;;;;4105082;34;20108;-87
2020/12/28 11:59:05;;;;;;;35.38;5.35;;;30.30;38.90;;;;;;4109288;34;20490;-88
2020/12/28 12:01:32;;;;;;;18.52;4.03;;;29.80;35.80;;;;;;4109293;34;20568;-86
2020/12/28 12:04:00;;;;;;;22.62;4.93;;;29.70;44.20;;;;;;4110932;34;20561;-87
2020/12/28 12:06:28;;;;;;;23.90;5.03;;;29.40;39.80;;;;;;4112830;34;20117;-87
2020/12/28 12:09:12;;;;;;;16.25;4.30;;;29.40;40.00;;;;;;4115030;34;20092;-88
2020/12/28 12:11:47;;;;;;;15.85;3.55;;;28.80;43.60;;;;;;4115357;34;20144;-87
2020/12/28 12:14:15;;;;;;;28.25;4.07;;;27.10;48.60;;;;;;4108341;34;20065;-88
2020/12/28 12:16:57;;;;;;;18.85;4.65;;;26.90;49.20;;;;;;4112434;34;20057;-87
2020/12/28 12:19:25;;;;;;;17.33;4.60;;;26.80;52.80;;;;;;4105625;34;20363;-89
2020/12/28 12:21:55;;;;;;;22.62;5.20;;;26.70;52.70;;;;;;4111677;34;20065;-87
2020/12/28 12:24:23;;;;;;;20.83;4.85;;;27.00;48.60;;;;;;4105890;34;20054;-87
2020/12/28 12:26:51;;;;;;;19.70;4.40;;;26.50;47.80;;;;;;4114437;34;20450;-87
2020/12/28 12:29:19;;;;;;;25.52;4.40;;;26.60;49.70;;;;;;4107981;34;20758;-88
2020/12/28 12:31:52;;;;;;;17.90;4.40;;;26.90;52.60;;;;;;4112058;34;20124;-88
2020/12/28 12:34:20;;;;;;;15.52;3.60;;;26.80;54.50;;;;;;4108516;34;20120;-86
2020/12/28 12:36:50;;;;;;;11.60;3.90;;;26.70;55.40;;;;;;4112163;34;20136;-87
2020/12/28 12:39:18;;;;;;;18.75;3.60;;;26.80;56.90;;;;;;4110360;34;20102;-87
2020/12/28 12:41:47;;;;;;;18.17;4.32;;;25.40;59.60;;;;;;4109660;34;20730;-87
2020/12/28 12:44:16;;;;;;;13.43;3.72;;;24.70;62.60;;;;;;4109889;34;20135;-87
2020/12/28 12:46:45;;;;;;;14.60;3.65;;;24.90;65.30;;;;;;4116071;34;20065;-88
2020/12/28 12:49:13;;;;;;;17.10;3.92;;;24.90;63.30;;;;;;4104786;34;20069;-87
2020/12/28 12:51:41;;;;;;;14.93;4.07;;;24.50;67.40;;;;;;4100719;34;20117;-87
2020/12/28 12:54:09;;;;;;;15.30;3.17;;;24.50;64.50;;;;;;4106552;34;20163;-87
2020/12/28 12:56:37;;;;;;;22.42;3.67;;;;;;;;;;4111478;34;20490;-86
2020/12/28 12:59:06;;;;;;;17.00;3.60;;;;;;;;;;4111830;34;20057;-88
2020/12/28 13:01:34;;;;;;;22.90;3.83;;;;;;;;;;4111931;34;20050;-87
2020/12/28 13:04:29;;;;;;;37.38;3.67;;;;;;;;;;4111109;34;20160;-87
2020/12/28 13:06:50;;;;;;;16.65;4.30;;;;;;;;;;4106207;34;20484;-87
2020/12/28 13:09:18;;;;;;;14.77;3.97;;;;;;;;;;4106721;34;20219;-86
2020/12/28 13:11:47;;;;;;;17.25;3.87;;;;;;;;;;4110267;34;20150;-87
2020/12/28 13:14:15;;;;;;;19.48;3.42;;;;;;;;;;4105996;34;20575;-87
2020/12/28 13:16:47;;;;;;;16.95;4.28;;;;;;;;;;4108071;34;20082;-86
2020/12/28 13:19:16;;;;;;;15.73;3.75;;;;;;;;;;4104980;34;20123;-88
2020/12/28 13:21:47;;;;;;;16.00;3.67;;;;;;;;;;4102770;34;20054;-88
2020/12/28 13:24:16;;;;;;;15.25;3.17;;;;;;;;;;4107728;34;20379;-86
2020/12/28 13:26:44;;;;;;;19.27;3.05;;;;;;;;;;4112596;34;20113;-87
2020/12/28 13:29:12;;;;;;;22.42;4.35;;;;;;;;;;4110938;34;20437;-87
2020/12/28 13:31:41;;;;;;;18.42;3.08;;;;;;;;;;4107902;34;20128;-88
2020/12/28 13:34:09;;;;;;;17.05;3.47;;;;;;;;;;4103225;34;20121;-88
2020/12/28 13:36:37;;;;;;;23.20;3.30;;;;;;;;;;4108685;34;20113;-87
2020/12/28 13:39:06;;;;;;;19.15;4.45;;;;;;;;;;4122737;34;20084;-86
2020/12/28 13:41:34;;;;;;;20.95;3.20;;;;;;;;;;4105838;34;20168;-87
2020/12/28 13:44:02;;;;;;;24.85;4.25;;;;;;;;;;4096191;34;20119;-87
2020/12/28 13:46:31;;;;;;;26.58;4.57;;;;;;;;;;4103473;34;20502;-88
2020/12/28 13:48:59;;;;;;;20.08;3.90;;;;;;;;;;4106174;34;20114;-88
2020/12/28 13:51:34;;;;;;;11.25;2.45;;;;;;;;;;4110497;34;20134;-88
2020/12/28 13:54:03;;;;;;;8.30;1.90;;;;;;;;;;4107656;34;20066;-86
2020/12/28 13:56:31;;;;;;;15.85;2.42;;;;;;;;;;4110050;34;20109;-87
2020/12/28 13:59:00;;;;;;;11.63;2.50;;;;;;;;;;4105690;34;20135;-86
2020/12/28 14:01:29;;;;;;;19.35;2.87;;;;;;;;;;4123302;34;20117;-86
2020/12/28 14:03:57;;;;;;;18.15;2.90;;;;;;;;;;4113623;34;20761;-87
2020/12/28 14:06:27;;;;;;;39.75;3.12;;;;;;;;;;4109664;34;20157;-86
2020/12/28 14:08:55;;;;;;;10.80;2.15;;;;;;;;;;4113443;34;20088;-87
2020/12/28 14:11:30;;;;;;;14.40;2.17;;;;;;;;;;4121811;34;20101;-86
2020/12/28 14:13:58;;;;;;;20.27;2.85;;;;;;;;;;4110586;34;20147;-87
2020/12/28 14:16:29;;;;;;;17.92;2.15;;;;;;;;;;4100922;34;20175;-87
2020/12/28 14:18:58;;;;;;;16.73;2.55;;;;;;;;;;4109340;34;20380;-86
2020/12/28 14:21:27;;;;;;;15.00;2.53;;;;;;;;;;4108632;34;20125;-87
2020/12/28 14:23:55;;;;;;;12.48;2.33;;;;;;;;;;4094983;34;20166;-86
2020/12/28 14:26:23;;;;;;;17.67;2.50;;;;;;;;;;4124764;34;20472;-88
2020/12/28 14:28:52;;;;;;;13.98;2.30;;;;;;;;;;4114941;34;20096;-86
2020/12/28 14:31:20;;;;;;;11.32;1.90;;;;;;;;;;4114388;34;20120;-86